createdAt,value
2022-09-28T00:00:30.894Z,973.98
2022-09-28T00:01:30.938Z,973.92
2022-09-28T00:02:31.018Z,973.90
2022-09-28T00:03:30.872Z,973.87
2022-09-28T00:04:30.919Z,973.84
2022-09-28T00:05:30.875Z,973.79
2022-09-28T00:06:30.865Z,973.75
2022-09-28T00:07:30.864Z,973.76
2022-09-28T00:08:30.864Z,973.72
2022-09-28T00:09:30.878Z,973.68
2022-09-28T00:10:30.856Z,973.69
2022-09-28T00:11:30.853Z,973.76
2022-09-28T00:12:30.864Z,973.74
2022-09-28T00:13:30.815Z,973.75
2022-09-28T00:14:30.856Z,973.70
2022-09-28T00:15:30.966Z,973.74
2022-09-28T00:16:30.911Z,973.76
2022-09-28T00:17:30.817Z,973.70
2022-09-28T00:18:30.803Z,973.73
2022-09-28T00:19:30.797Z,973.70
2022-09-28T00:20:30.796Z,973.69
2022-09-28T00:21:30.874Z,973.72
2022-09-28T00:22:30.816Z,973.70
2022-09-28T00:23:30.792Z,973.69
2022-09-28T00:24:30.780Z,973.69
2022-09-28T00:25:30.813Z,973.66
2022-09-28T00:26:30.771Z,973.57
2022-09-28T00:27:30.842Z,973.63
2022-09-28T00:28:30.757Z,973.61
2022-09-28T00:29:30.759Z,973.55
2022-09-28T00:30:30.747Z,973.55
2022-09-28T00:31:30.812Z,973.49
2022-09-28T00:32:30.788Z,973.44
2022-09-28T00:33:30.737Z,973.46
2022-09-28T00:34:30.728Z,973.43
2022-09-28T00:35:30.715Z,973.36
2022-09-28T00:36:30.724Z,973.42
2022-09-28T00:37:30.873Z,973.47
2022-09-28T00:38:30.700Z,973.47
2022-09-28T00:39:30.732Z,973.48
2022-09-28T00:40:30.788Z,973.46
2022-09-28T00:41:30.695Z,973.46
2022-09-28T00:42:30.702Z,973.41
2022-09-28T00:43:30.683Z,973.50
2022-09-28T00:44:30.745Z,973.44
2022-09-28T00:45:30.800Z,973.45
2022-09-28T00:46:30.657Z,973.43
2022-09-28T00:47:30.666Z,973.38
2022-09-28T00:48:30.676Z,973.48
2022-09-28T00:49:30.648Z,973.38
2022-09-28T00:50:30.655Z,973.40
2022-09-28T00:51:30.631Z,973.31
2022-09-28T00:52:30.630Z,973.32
2022-09-28T00:53:30.661Z,973.29
2022-09-28T00:54:30.621Z,973.31
2022-09-28T00:55:30.625Z,973.25
2022-09-28T00:56:30.636Z,973.27
2022-09-28T00:57:30.613Z,973.22
2022-09-28T00:58:31.637Z,973.21
2022-09-28T00:59:30.614Z,973.15
2022-09-28T01:00:30.644Z,973.15
2022-09-28T01:01:30.587Z,973.16
2022-09-28T01:02:30.643Z,973.15
2022-09-28T01:03:30.592Z,973.20
2022-09-28T01:04:30.572Z,973.18
2022-09-28T01:05:30.569Z,973.15
2022-09-28T01:06:30.590Z,973.17
2022-09-28T01:07:30.549Z,973.15
2022-09-28T01:08:30.557Z,973.11
2022-09-28T01:09:30.545Z,973.10
2022-09-28T01:10:30.708Z,973.09
2022-09-28T01:11:30.624Z,973.09
2022-09-28T01:12:30.531Z,973.06
2022-09-28T01:13:30.535Z,973.13
2022-09-28T01:14:30.525Z,973.14
2022-09-28T01:15:30.547Z,973.06
2022-09-28T01:16:30.676Z,973.09
2022-09-28T01:17:30.515Z,973.05
2022-09-28T01:18:30.498Z,973.03
2022-09-28T01:19:30.525Z,973.03
2022-09-28T01:20:30.493Z,973.00
2022-09-28T01:21:30.497Z,972.99
2022-09-28T01:22:30.497Z,972.98
2022-09-28T01:23:30.480Z,972.93
2022-09-28T01:24:30.512Z,972.92
2022-09-28T01:25:30.478Z,972.97
2022-09-28T01:26:30.537Z,972.90
2022-09-28T01:27:30.486Z,972.82
2022-09-28T01:28:30.494Z,972.85
2022-09-28T01:29:30.462Z,972.85
2022-09-28T01:30:30.455Z,972.82
2022-09-28T01:31:30.512Z,972.90
2022-09-28T01:32:30.441Z,972.89
2022-09-28T01:33:30.442Z,972.83
2022-09-28T01:34:30.449Z,972.89
2022-09-28T01:35:31.429Z,972.90
2022-09-28T01:36:30.425Z,972.91
2022-09-28T01:37:30.418Z,972.89
2022-09-28T01:38:30.413Z,972.81
2022-09-28T01:39:30.450Z,972.82
2022-09-28T01:40:30.514Z,972.82
2022-09-28T01:41:30.402Z,972.76
2022-09-28T01:42:30.389Z,972.76
2022-09-28T01:43:30.386Z,972.72
2022-09-28T01:44:30.376Z,972.72
2022-09-28T01:45:30.431Z,972.66
2022-09-28T01:46:30.364Z,972.70
2022-09-28T01:47:30.412Z,972.70
2022-09-28T01:48:30.415Z,972.67
2022-09-28T01:49:30.404Z,972.65
2022-09-28T01:50:30.372Z,972.62
2022-09-28T01:51:30.330Z,972.57
2022-09-28T01:52:30.354Z,972.50
2022-09-28T01:53:30.344Z,972.54
2022-09-28T01:54:30.370Z,972.50
2022-09-28T01:55:30.326Z,972.55
2022-09-28T01:56:30.321Z,972.46
2022-09-28T01:57:30.326Z,972.45
2022-09-28T01:58:30.330Z,972.43
2022-09-28T01:59:30.355Z,972.44
2022-09-28T02:00:30.396Z,972.36
2022-09-28T02:01:30.319Z,972.39
2022-09-28T02:02:30.351Z,972.38
2022-09-28T02:03:30.284Z,972.36
2022-09-28T02:04:30.273Z,972.32
2022-09-28T02:05:30.341Z,972.26
2022-09-28T02:06:30.274Z,972.36
2022-09-28T02:07:30.362Z,972.33
2022-09-28T02:08:30.266Z,972.28
2022-09-28T02:09:33.702Z,972.19
2022-09-28T02:10:31.295Z,972.24
2022-09-28T02:11:30.280Z,972.20
2022-09-28T02:12:30.256Z,972.20
2022-09-28T02:13:30.248Z,972.19
2022-09-28T02:14:30.296Z,972.20
2022-09-28T02:15:30.244Z,972.19
2022-09-28T02:16:30.278Z,972.22
2022-09-28T02:17:30.311Z,972.19
2022-09-28T02:18:30.251Z,972.17
2022-09-28T02:19:30.230Z,972.17
2022-09-28T02:20:30.221Z,972.09
2022-09-28T02:21:30.209Z,972.14
2022-09-28T02:22:30.203Z,972.07
2022-09-28T02:23:30.240Z,972.10
2022-09-28T02:24:30.182Z,972.11
2022-09-28T02:25:30.284Z,972.09
2022-09-28T02:26:30.169Z,972.04
2022-09-28T02:27:30.203Z,972.06
2022-09-28T02:28:30.211Z,972.04
2022-09-28T02:29:30.214Z,972.03
2022-09-28T02:30:30.187Z,972.01
2022-09-28T02:31:30.181Z,972.03
2022-09-28T02:32:30.139Z,972.02
2022-09-28T02:33:30.128Z,971.96
2022-09-28T02:34:30.154Z,971.98
2022-09-28T02:35:30.168Z,971.93
2022-09-28T02:36:30.197Z,971.92
2022-09-28T02:37:30.128Z,971.93
2022-09-28T02:38:30.107Z,971.91
2022-09-28T02:39:30.118Z,971.97
2022-09-28T02:40:30.220Z,971.88
2022-09-28T02:41:30.120Z,971.88
2022-09-28T02:42:30.140Z,971.91
2022-09-28T02:43:30.092Z,971.93
2022-09-28T02:44:30.095Z,971.88
2022-09-28T02:45:30.111Z,971.91
2022-09-28T02:46:30.111Z,971.95
2022-09-28T02:47:30.117Z,971.90
2022-09-28T02:48:43.121Z,971.95
2022-09-28T02:49:32.197Z,971.93
2022-09-28T02:50:30.052Z,971.95
2022-09-28T02:51:30.055Z,971.93
2022-09-28T02:52:30.120Z,971.92
2022-09-28T02:53:30.039Z,971.96
2022-09-28T02:54:30.030Z,971.93
2022-09-28T02:55:30.055Z,971.91
2022-09-28T02:56:30.022Z,971.92
2022-09-28T02:57:30.042Z,971.86
2022-09-28T02:58:30.061Z,971.89
2022-09-28T02:59:30.012Z,971.80
2022-09-28T03:00:30.022Z,971.80
2022-09-28T03:01:30.010Z,971.89
2022-09-28T03:02:30.045Z,971.77
2022-09-28T03:03:30.044Z,971.87
2022-09-28T03:04:29.993Z,971.82
2022-09-28T03:05:29.985Z,971.82
2022-09-28T03:06:29.989Z,971.82
2022-09-28T03:07:29.967Z,971.84
2022-09-28T03:08:30.003Z,971.79
2022-09-28T03:09:29.970Z,971.81
2022-09-28T03:10:29.968Z,971.84
2022-09-28T03:11:29.951Z,971.82
2022-09-28T03:12:30.008Z,971.83
2022-09-28T03:13:29.971Z,971.91
2022-09-28T03:14:29.985Z,971.83
2022-09-28T03:15:29.953Z,971.86
2022-09-28T03:16:30.017Z,971.87
2022-09-28T03:17:29.936Z,971.80
2022-09-28T03:18:29.938Z,971.83
2022-09-28T03:19:29.976Z,971.82
2022-09-28T03:20:29.923Z,971.80
2022-09-28T03:21:29.915Z,971.87
2022-09-28T03:22:29.899Z,971.76
2022-09-28T03:23:29.909Z,971.74
2022-09-28T03:24:29.957Z,971.76
2022-09-28T03:25:29.885Z,971.72
2022-09-28T03:26:29.896Z,971.80
2022-09-28T03:27:29.889Z,971.78
2022-09-28T03:28:29.874Z,971.81
2022-09-28T03:29:29.918Z,971.79
2022-09-28T03:30:29.875Z,971.80
2022-09-28T03:31:29.950Z,971.79
2022-09-28T03:32:29.866Z,971.73
2022-09-28T03:33:29.867Z,971.71
2022-09-28T03:34:29.846Z,971.70
2022-09-28T03:35:29.861Z,971.69
2022-09-28T03:36:30.884Z,971.73
2022-09-28T03:37:29.861Z,971.71
2022-09-28T03:38:29.850Z,971.72
2022-09-28T03:39:29.824Z,971.74
2022-09-28T03:40:29.940Z,971.70
2022-09-28T03:41:29.854Z,971.66
2022-09-28T03:42:29.845Z,971.66
2022-09-28T03:43:29.801Z,971.72
2022-09-28T03:44:29.810Z,971.73
2022-09-28T03:45:29.852Z,971.72
2022-09-28T03:46:29.848Z,971.68
2022-09-28T03:47:29.826Z,971.72
2022-09-28T03:48:32.332Z,971.69
2022-09-28T03:49:30.843Z,971.68
2022-09-28T03:50:29.790Z,971.70
2022-09-28T03:51:29.787Z,971.72
2022-09-28T03:52:29.820Z,971.65
2022-09-28T03:53:29.924Z,971.66
2022-09-28T03:54:29.789Z,971.69
2022-09-28T03:55:29.758Z,971.64
2022-09-28T03:56:29.763Z,971.64
2022-09-28T03:57:29.795Z,971.61
2022-09-28T03:58:29.733Z,971.67
2022-09-28T03:59:29.732Z,971.64
2022-09-28T04:00:29.755Z,971.64
2022-09-28T04:01:29.808Z,971.63
2022-09-28T04:02:29.778Z,971.59
2022-09-28T04:03:29.765Z,971.62
2022-09-28T04:04:29.753Z,971.64
2022-09-28T04:05:29.723Z,971.61
2022-09-28T04:06:29.782Z,971.63
2022-09-28T04:07:31.214Z,971.63
2022-09-28T04:08:30.713Z,971.62
2022-09-28T04:09:29.700Z,971.59
2022-09-28T04:10:29.685Z,971.58
2022-09-28T04:11:38.488Z,971.55
2022-09-28T04:12:31.687Z,971.52
2022-09-28T04:13:29.681Z,971.50
2022-09-28T04:14:29.662Z,971.56
2022-09-28T04:15:29.698Z,971.53
2022-09-28T04:16:29.774Z,971.51
2022-09-28T04:17:29.662Z,971.53
2022-09-28T04:18:29.687Z,971.53
2022-09-28T04:19:29.635Z,971.51
2022-09-28T04:20:29.698Z,971.52
2022-09-28T04:21:29.693Z,971.52
2022-09-28T04:22:29.671Z,971.50
2022-09-28T04:23:29.637Z,971.50
2022-09-28T04:24:29.669Z,971.47
2022-09-28T04:25:29.649Z,971.52
2022-09-28T04:26:29.613Z,971.51
2022-09-28T04:27:29.647Z,971.51
2022-09-28T04:28:29.617Z,971.51
2022-09-28T04:29:29.633Z,971.52
2022-09-28T04:30:29.607Z,971.50
2022-09-28T04:31:29.634Z,971.57
2022-09-28T04:32:29.629Z,971.55
2022-09-28T04:33:29.586Z,971.52
2022-09-28T04:34:34.502Z,971.52
2022-09-28T04:35:31.601Z,971.57
2022-09-28T04:36:29.591Z,971.58
2022-09-28T04:37:29.551Z,971.54
2022-09-28T04:38:51.385Z,971.59
2022-09-28T04:39:31.543Z,971.53
2022-09-28T04:40:29.601Z,971.59
2022-09-28T04:41:29.527Z,971.58
2022-09-28T04:42:29.572Z,971.53
2022-09-28T04:43:29.544Z,971.61
2022-09-28T04:44:29.589Z,971.58
2022-09-28T04:45:29.565Z,971.59
2022-09-28T04:46:29.540Z,971.55
2022-09-28T04:47:29.508Z,971.57
2022-09-28T04:48:29.502Z,971.58
2022-09-28T04:49:29.532Z,971.60
2022-09-28T04:50:29.569Z,971.62
2022-09-28T04:51:29.487Z,971.57
2022-09-28T04:52:29.497Z,971.62
2022-09-28T04:53:29.515Z,971.61
2022-09-28T04:54:29.500Z,971.63
2022-09-28T04:55:29.474Z,971.61
2022-09-28T04:56:29.466Z,971.60
2022-09-28T04:57:29.466Z,971.61
2022-09-28T04:58:29.493Z,971.59
2022-09-28T04:59:29.466Z,971.65
2022-09-28T05:00:29.445Z,971.67
2022-09-28T05:01:29.483Z,971.65
2022-09-28T05:02:29.509Z,971.59
2022-09-28T05:03:29.472Z,971.60
2022-09-28T05:04:29.596Z,971.63
2022-09-28T05:05:29.410Z,971.63
2022-09-28T05:06:29.425Z,971.62
2022-09-28T05:07:29.407Z,971.69
2022-09-28T05:08:29.406Z,971.65
2022-09-28T05:09:29.453Z,971.66
2022-09-28T05:10:29.474Z,971.71
2022-09-28T05:11:29.410Z,971.75
2022-09-28T05:12:29.404Z,971.71
2022-09-28T05:13:29.420Z,971.70
2022-09-28T05:14:29.383Z,971.71
2022-09-28T05:15:29.460Z,971.75
2022-09-28T05:16:29.405Z,971.73
2022-09-28T05:17:29.372Z,971.75
2022-09-28T05:18:29.386Z,971.72
2022-09-28T05:19:29.351Z,971.77
2022-09-28T05:20:29.362Z,971.76
2022-09-28T05:21:29.339Z,971.75
2022-09-28T05:22:29.339Z,971.71
2022-09-28T05:23:29.352Z,971.73
2022-09-28T05:24:29.391Z,971.75
2022-09-28T05:25:29.319Z,971.79
2022-09-28T05:26:29.333Z,971.72
2022-09-28T05:27:29.313Z,971.79
2022-09-28T05:28:29.331Z,971.79
2022-09-28T05:29:32.207Z,971.77
2022-09-28T05:30:30.338Z,971.79
2022-09-28T05:31:29.446Z,971.80
2022-09-28T05:32:29.290Z,971.83
2022-09-28T05:33:29.293Z,971.81
2022-09-28T05:34:29.317Z,971.83
2022-09-28T05:35:29.364Z,971.84
2022-09-28T05:36:29.284Z,971.87
2022-09-28T05:37:29.277Z,971.88
2022-09-28T05:38:29.294Z,971.87
2022-09-28T05:39:29.258Z,971.88
2022-09-28T05:40:29.345Z,971.92
2022-09-28T05:41:29.240Z,971.96
2022-09-28T05:42:29.256Z,971.97
2022-09-28T05:43:29.253Z,971.98
2022-09-28T05:44:29.289Z,971.99
2022-09-28T05:45:29.344Z,971.99
2022-09-28T05:46:29.265Z,972.02
2022-09-28T05:47:29.226Z,971.97
2022-09-28T05:48:29.221Z,972.00
2022-09-28T05:49:29.232Z,972.00
2022-09-28T05:50:29.246Z,972.03
2022-09-28T05:51:29.205Z,972.02
2022-09-28T05:52:29.180Z,972.04
2022-09-28T05:53:29.288Z,972.01
2022-09-28T05:54:29.245Z,972.07
2022-09-28T05:55:29.198Z,972.06
2022-09-28T05:56:29.171Z,971.98
2022-09-28T05:57:29.169Z,972.04
2022-09-28T05:58:29.186Z,972.09
2022-09-28T05:59:29.158Z,972.09
2022-09-28T06:00:29.191Z,972.09
2022-09-28T06:01:29.197Z,972.09
2022-09-28T06:02:29.254Z,972.11
2022-09-28T06:03:29.173Z,972.11
2022-09-28T06:04:29.202Z,972.17
2022-09-28T06:05:29.111Z,972.12
2022-09-28T06:06:29.161Z,972.14
2022-09-28T06:07:29.110Z,972.17
2022-09-28T06:08:29.112Z,972.16
2022-09-28T06:09:29.134Z,972.16
2022-09-28T06:10:29.165Z,972.14
2022-09-28T06:11:29.194Z,972.18
2022-09-28T06:12:29.104Z,972.18
2022-09-28T06:13:29.083Z,972.14
2022-09-28T06:14:29.102Z,972.14
2022-09-28T06:15:29.098Z,972.13
2022-09-28T06:16:29.199Z,972.12
2022-09-28T06:17:29.087Z,972.11
2022-09-28T06:18:29.053Z,972.14
2022-09-28T06:19:29.061Z,972.15
2022-09-28T06:20:29.128Z,972.08
2022-09-28T06:21:29.043Z,972.12
2022-09-28T06:22:29.049Z,972.17
2022-09-28T06:23:29.024Z,972.16
2022-09-28T06:24:29.086Z,972.14
2022-09-28T06:25:29.024Z,972.17
2022-09-28T06:26:29.101Z,972.14
2022-09-28T06:27:29.027Z,972.21
2022-09-28T06:28:28.995Z,972.14
2022-09-28T06:29:29.034Z,972.16
2022-09-28T06:30:29.145Z,972.18
2022-09-28T06:31:29.111Z,972.15
2022-09-28T06:32:29.036Z,972.19
2022-09-28T06:33:28.988Z,972.24
2022-09-28T06:34:28.984Z,972.23
2022-09-28T06:35:28.989Z,972.26
2022-09-28T06:36:28.972Z,972.29
2022-09-28T06:37:29.043Z,972.25
2022-09-28T06:38:28.962Z,972.28
2022-09-28T06:39:28.962Z,972.32
2022-09-28T06:40:29.045Z,972.28
2022-09-28T06:41:28.967Z,972.38
2022-09-28T06:42:28.944Z,972.31
2022-09-28T06:43:33.545Z,972.38
2022-09-28T06:44:30.933Z,972.36
2022-09-28T06:45:28.942Z,972.38
2022-09-28T06:46:29.004Z,972.41
2022-09-28T06:47:28.931Z,972.40
2022-09-28T06:48:29.906Z,972.42
2022-09-28T06:49:28.912Z,972.44
2022-09-28T06:50:28.908Z,972.44
2022-09-28T06:51:28.970Z,972.46
2022-09-28T06:52:28.956Z,972.46
2022-09-28T06:53:28.995Z,972.42
2022-09-28T06:54:28.885Z,972.40
2022-09-28T06:55:28.880Z,972.36
2022-09-28T06:56:32.703Z,972.41
2022-09-28T06:57:29.868Z,972.42
2022-09-28T06:58:28.911Z,972.41
2022-09-28T06:59:28.945Z,972.42
2022-09-28T07:00:28.879Z,972.46
2022-09-28T07:01:28.903Z,972.42
2022-09-28T07:02:28.868Z,972.41
2022-09-28T07:03:28.865Z,972.47
2022-09-28T07:04:28.861Z,972.46
2022-09-28T07:05:28.838Z,972.53
2022-09-28T07:06:28.833Z,972.51
2022-09-28T07:07:28.815Z,972.54
2022-09-28T07:08:28.852Z,972.56
2022-09-28T07:09:32.920Z,972.61
2022-09-28T07:10:29.863Z,972.60
2022-09-28T07:11:28.798Z,972.59
2022-09-28T07:12:28.822Z,972.60
2022-09-28T07:13:49.156Z,972.66
2022-09-28T07:14:47.018Z,972.65
2022-09-28T07:15:30.772Z,972.66
2022-09-28T07:16:46.525Z,972.64
2022-09-28T07:17:31.014Z,972.65
2022-09-28T07:18:28.887Z,972.66
2022-09-28T07:19:28.772Z,972.71
2022-09-28T07:20:28.744Z,972.70
2022-09-28T07:21:30.753Z,972.74
2022-09-28T07:22:40.587Z,972.73
2022-09-28T07:23:30.865Z,972.75
2022-09-28T07:24:28.781Z,972.81
2022-09-28T07:25:28.767Z,972.80
2022-09-28T07:26:28.772Z,972.80
2022-09-28T07:27:29.114Z,972.79
2022-09-28T07:28:29.752Z,972.81
2022-09-28T07:29:28.717Z,972.82
2022-09-28T07:30:28.709Z,972.81
2022-09-28T07:31:28.733Z,972.84
2022-09-28T07:32:28.698Z,972.86
2022-09-28T07:33:28.745Z,972.85
2022-09-28T07:34:28.680Z,972.83
2022-09-28T07:35:28.671Z,972.84
2022-09-28T07:36:28.705Z,972.88
2022-09-28T07:37:28.715Z,972.91
2022-09-28T07:38:28.666Z,972.93
2022-09-28T07:39:28.666Z,972.95
2022-09-28T07:40:28.672Z,972.95
2022-09-28T07:41:28.664Z,972.98
2022-09-28T07:42:28.683Z,973.02
2022-09-28T07:43:28.630Z,972.98
2022-09-28T07:44:28.683Z,973.00
2022-09-28T07:45:28.646Z,972.99
2022-09-28T07:46:28.615Z,972.98
2022-09-28T07:47:34.719Z,973.01
2022-09-28T07:48:30.612Z,973.01
2022-09-28T07:49:28.591Z,973.03
2022-09-28T07:50:28.623Z,973.04
2022-09-28T07:51:28.598Z,973.07
2022-09-28T07:52:28.610Z,973.04
2022-09-28T07:53:28.658Z,973.12
2022-09-28T07:54:28.575Z,973.03
2022-09-28T07:55:28.564Z,973.08
2022-09-28T07:56:28.588Z,973.05
2022-09-28T07:57:28.575Z,973.06
2022-09-28T07:58:28.639Z,973.05
2022-09-28T07:59:28.651Z,973.10
2022-09-28T08:00:33.213Z,973.06
2022-09-28T08:01:30.644Z,973.10
2022-09-28T08:02:28.605Z,973.11
2022-09-28T08:03:28.623Z,973.11
2022-09-28T08:04:28.601Z,973.15
2022-09-28T08:05:28.530Z,973.12
2022-09-28T08:06:28.624Z,973.11
2022-09-28T08:07:28.508Z,973.09
2022-09-28T08:08:28.509Z,973.14
2022-09-28T08:09:28.541Z,973.09
2022-09-28T08:10:28.503Z,973.15
2022-09-28T08:11:28.526Z,973.14
2022-09-28T08:12:28.485Z,973.13
2022-09-28T08:13:28.553Z,973.12
2022-09-28T08:14:28.523Z,973.20
2022-09-28T08:15:28.487Z,973.17
2022-09-28T08:16:28.626Z,973.17
2022-09-28T08:17:28.461Z,973.19
2022-09-28T08:18:28.466Z,973.23
2022-09-28T08:19:28.482Z,973.25
2022-09-28T08:20:28.475Z,973.21
2022-09-28T08:21:28.503Z,973.24
2022-09-28T08:22:28.431Z,973.26
2022-09-28T08:23:28.446Z,973.29
2022-09-28T08:24:28.448Z,973.30
2022-09-28T08:25:28.460Z,973.32
2022-09-28T08:26:28.504Z,973.29
2022-09-28T08:27:28.417Z,973.34
2022-09-28T08:28:28.426Z,973.39
2022-09-28T08:29:28.404Z,973.34
2022-09-28T08:30:28.472Z,973.34
2022-09-28T08:31:29.089Z,973.39
2022-09-28T08:32:28.391Z,973.35
2022-09-28T08:33:28.443Z,973.32
2022-09-28T08:34:28.412Z,973.36
2022-09-28T08:35:28.402Z,973.38
2022-09-28T08:36:28.436Z,973.36
2022-09-28T08:37:28.391Z,973.39
2022-09-28T08:38:28.406Z,973.45
2022-09-28T08:39:28.355Z,973.42
2022-09-28T08:40:28.418Z,973.47
2022-09-28T08:41:28.346Z,973.47
2022-09-28T08:42:28.351Z,973.53
2022-09-28T08:43:28.380Z,973.48
2022-09-28T08:44:29.245Z,973.46
2022-09-28T08:45:28.338Z,973.48
2022-09-28T08:46:28.375Z,973.50
2022-09-28T08:47:28.332Z,973.45
2022-09-28T08:48:28.369Z,973.45
2022-09-28T08:49:28.395Z,973.48
2022-09-28T08:50:29.279Z,973.48
2022-09-28T08:51:28.286Z,973.51
2022-09-28T08:52:28.295Z,973.51
2022-09-28T08:53:28.322Z,973.51
2022-09-28T08:54:28.290Z,973.51
2022-09-28T08:55:28.279Z,973.56
2022-09-28T08:56:28.313Z,973.56
2022-09-28T08:57:28.328Z,973.62
2022-09-28T08:58:28.267Z,973.61
2022-09-28T08:59:28.225Z,973.60
2022-09-28T09:00:28.305Z,973.69
2022-09-28T09:01:28.906Z,973.67
2022-09-28T09:02:28.396Z,973.70
2022-09-28T09:03:28.324Z,973.69
2022-09-28T09:04:28.228Z,973.71
2022-09-28T09:05:28.268Z,973.72
2022-09-28T09:06:28.243Z,973.72
2022-09-28T09:07:28.204Z,973.72
2022-09-28T09:08:28.178Z,973.74
2022-09-28T09:09:28.184Z,973.81
2022-09-28T09:10:28.205Z,973.77
2022-09-28T09:11:28.213Z,973.74
2022-09-28T09:12:28.174Z,973.71
2022-09-28T09:13:28.163Z,973.75
2022-09-28T09:14:28.186Z,973.78
2022-09-28T09:15:28.141Z,973.78
2022-09-28T09:16:28.221Z,973.75
2022-09-28T09:17:28.145Z,973.85
2022-09-28T09:18:28.189Z,973.85
2022-09-28T09:19:28.118Z,973.86
2022-09-28T09:20:28.127Z,973.81
2022-09-28T09:21:28.112Z,973.87
2022-09-28T09:22:28.131Z,973.84
2022-09-28T09:23:28.175Z,973.85
2022-09-28T09:24:28.101Z,973.83
2022-09-28T09:25:28.105Z,973.85
2022-09-28T09:26:28.092Z,973.86
2022-09-28T09:27:28.126Z,973.76
2022-09-28T09:28:28.082Z,973.78
2022-09-28T09:29:28.161Z,973.81
2022-09-28T09:30:31.019Z,973.90
2022-09-28T09:31:29.080Z,973.83
2022-09-28T09:32:28.048Z,973.81
2022-09-28T09:33:28.033Z,973.83
2022-09-28T09:34:28.039Z,973.80
2022-09-28T09:35:30.707Z,973.83
2022-09-28T09:36:29.131Z,973.87
2022-09-28T09:37:28.016Z,973.85
2022-09-28T09:38:28.004Z,973.93
2022-09-28T09:39:28.004Z,973.88
2022-09-28T09:40:28.145Z,973.87
2022-09-28T09:41:28.023Z,973.86
2022-09-28T09:42:28.011Z,973.93
2022-09-28T09:43:30.930Z,973.96
2022-09-28T09:44:29.275Z,973.97
2022-09-28T09:45:28.027Z,973.93
2022-09-28T09:46:28.024Z,973.91
2022-09-28T09:47:27.969Z,973.95
2022-09-28T09:48:27.976Z,973.95
2022-09-28T09:49:27.980Z,973.97
2022-09-28T09:50:28.001Z,973.90
2022-09-28T09:51:27.973Z,973.90
2022-09-28T09:52:27.977Z,973.86
2022-09-28T09:53:27.959Z,973.90
2022-09-28T09:54:27.918Z,973.91
2022-09-28T09:55:30.092Z,973.91
2022-09-28T09:56:28.914Z,973.96
2022-09-28T09:57:27.920Z,973.92
2022-09-28T09:58:27.936Z,973.97
2022-09-28T09:59:28.017Z,973.96
2022-09-28T10:00:27.948Z,973.87
2022-09-28T10:01:27.907Z,973.90
2022-09-28T10:02:27.932Z,973.83
2022-09-28T10:03:27.877Z,973.91
2022-09-28T10:04:27.850Z,973.96
2022-09-28T10:05:27.941Z,973.90
2022-09-28T10:06:27.869Z,973.96
2022-09-28T10:07:27.833Z,973.90
2022-09-28T10:08:28.842Z,973.90
2022-09-28T10:09:27.859Z,973.92
2022-09-28T10:10:28.875Z,973.91
2022-09-28T10:11:28.801Z,973.97
2022-09-28T10:12:28.763Z,973.93
2022-09-28T10:13:27.921Z,973.93
2022-09-28T10:14:27.793Z,973.89
2022-09-28T10:15:27.826Z,973.92
2022-09-28T10:16:27.802Z,973.87
2022-09-28T10:17:27.778Z,973.92
2022-09-28T10:18:27.767Z,973.97
2022-09-28T10:19:27.763Z,973.93
2022-09-28T10:20:27.788Z,973.94
2022-09-28T10:21:27.741Z,973.96
2022-09-28T10:22:27.725Z,973.97
2022-09-28T10:23:27.726Z,973.93
2022-09-28T10:24:27.729Z,973.97
2022-09-28T10:25:27.739Z,973.94
2022-09-28T10:26:27.688Z,973.98
2022-09-28T10:27:27.781Z,973.94
2022-09-28T10:28:27.684Z,973.97
2022-09-28T10:29:27.681Z,973.96
2022-09-28T10:30:27.819Z,974.01
2022-09-28T10:31:27.728Z,974.07
2022-09-28T10:32:27.690Z,974.07
2022-09-28T10:33:27.661Z,974.09
2022-09-28T10:34:27.640Z,974.13
2022-09-28T10:35:27.631Z,974.12
2022-09-28T10:36:27.627Z,974.15
2022-09-28T10:37:27.655Z,974.19
2022-09-28T10:38:27.605Z,974.19
2022-09-28T10:39:27.600Z,974.12
2022-09-28T10:40:27.780Z,974.16
2022-09-28T10:41:27.615Z,974.14
2022-09-28T10:42:27.726Z,974.24
2022-09-28T10:43:27.614Z,974.18
2022-09-28T10:44:27.605Z,974.18
2022-09-28T10:45:27.637Z,974.10
2022-09-28T10:46:27.671Z,974.12
2022-09-28T10:47:27.562Z,974.09
2022-09-28T10:48:27.548Z,974.10
2022-09-28T10:49:27.544Z,974.16
2022-09-28T10:50:27.586Z,974.14
2022-09-28T10:51:27.546Z,974.18
2022-09-28T10:52:27.523Z,974.20
2022-09-28T10:53:27.530Z,974.26
2022-09-28T10:54:27.585Z,974.19
2022-09-28T10:55:27.506Z,974.16
2022-09-28T10:56:27.499Z,974.19
2022-09-28T10:57:27.585Z,974.17
2022-09-28T10:58:27.481Z,974.22
2022-09-28T10:59:27.543Z,974.15
2022-09-28T11:00:27.479Z,974.10
2022-09-28T11:01:27.508Z,974.14
2022-09-28T11:02:27.686Z,974.19
2022-09-28T11:03:27.452Z,974.21
2022-09-28T11:04:27.472Z,974.13
2022-09-28T11:05:27.496Z,974.25
2022-09-28T11:06:27.440Z,974.22
2022-09-28T11:07:27.411Z,974.24
2022-09-28T11:08:27.408Z,974.20
2022-09-28T11:09:30.518Z,974.17
2022-09-28T11:10:28.405Z,974.21
2022-09-28T11:11:27.395Z,974.30
2022-09-28T11:12:27.439Z,974.27
2022-09-28T11:13:27.473Z,974.27
2022-09-28T11:14:27.366Z,974.24
2022-09-28T11:15:27.406Z,974.24
2022-09-28T11:16:27.418Z,974.29
2022-09-28T11:17:27.447Z,974.29
2022-09-28T11:18:27.377Z,974.27
2022-09-28T11:19:27.349Z,974.28
2022-09-28T11:20:28.554Z,974.29
2022-09-28T11:21:28.365Z,974.36
2022-09-28T11:22:27.346Z,974.24
2022-09-28T11:23:27.302Z,974.25
2022-09-28T11:24:27.520Z,974.25
2022-09-28T11:25:27.276Z,974.28
2022-09-28T11:26:27.251Z,974.21
2022-09-28T11:27:27.329Z,974.27
2022-09-28T11:28:27.274Z,974.18
2022-09-28T11:29:27.268Z,974.23
2022-09-28T11:30:27.272Z,974.29
2022-09-28T11:31:27.231Z,974.22
2022-09-28T11:32:27.281Z,974.26
2022-09-28T11:33:27.227Z,974.24
2022-09-28T11:34:36.541Z,974.30
2022-09-28T11:35:29.291Z,974.23
2022-09-28T11:36:27.291Z,974.29
2022-09-28T11:37:27.195Z,974.28
2022-09-28T11:38:27.203Z,974.28
2022-09-28T11:39:27.168Z,974.33
2022-09-28T11:40:27.192Z,974.30
2022-09-28T11:41:27.165Z,974.31
2022-09-28T11:42:27.152Z,974.33
2022-09-28T11:43:28.154Z,974.28
2022-09-28T11:44:30.863Z,974.31
2022-09-28T11:45:29.165Z,974.27
2022-09-28T11:46:27.203Z,974.34
2022-09-28T11:47:27.115Z,974.30
2022-09-28T11:48:27.094Z,974.31
2022-09-28T11:49:27.093Z,974.26
2022-09-28T11:50:27.091Z,974.29
2022-09-28T11:51:27.067Z,974.22
2022-09-28T11:52:27.089Z,974.33
2022-09-28T11:53:27.052Z,974.36
2022-09-28T11:54:27.041Z,974.35
2022-09-28T11:55:27.556Z,974.28
2022-09-28T11:56:27.081Z,974.27
2022-09-28T11:57:27.025Z,974.27
2022-09-28T11:58:27.048Z,974.30
2022-09-28T11:59:27.010Z,974.29
2022-09-28T12:00:27.120Z,974.28
2022-09-28T12:01:26.987Z,974.32
2022-09-28T12:02:27.060Z,974.31
2022-09-28T12:03:27.134Z,974.29
2022-09-28T12:04:26.982Z,974.38
2022-09-28T12:05:26.965Z,974.34
2022-09-28T12:06:26.950Z,974.35
2022-09-28T12:07:26.965Z,974.36
2022-09-28T12:08:27.993Z,974.31
2022-09-28T12:09:26.928Z,974.31
2022-09-28T12:10:26.926Z,974.34
2022-09-28T12:11:26.928Z,974.32
2022-09-28T12:12:26.986Z,974.38
2022-09-28T12:13:26.907Z,974.41
2022-09-28T12:14:26.886Z,974.44
2022-09-28T12:15:26.892Z,974.47
2022-09-28T12:16:53.688Z,974.42
2022-09-28T12:17:28.956Z,974.44
2022-09-28T12:18:26.858Z,974.51
2022-09-28T12:19:26.893Z,974.50
2022-09-28T12:20:27.359Z,974.48
2022-09-28T12:21:26.833Z,974.42
2022-09-28T12:22:26.861Z,974.49
2022-09-28T12:23:27.024Z,974.50
2022-09-28T12:24:26.841Z,974.50
2022-09-28T12:25:26.809Z,974.49
2022-09-28T12:26:26.816Z,974.53
2022-09-28T12:27:26.811Z,974.56
2022-09-28T12:28:26.786Z,974.60